Time;durP1;ratioP1;P1;durP2;ratioP2;P2;SDS_P1;SDS_P2;PMS_P1;PMS_P2;Temp;Humidity;BMP_temperature;BMP_pressure;BME280_temperature;BME280_humidity;BME280_pressure;Samples;Min_cycle;Max_cycle;Signal;HPM_P1;HPM_P2
2021/01/26 00:01:53;;;;;;;12.68;9.90;;;;;;;;;;5060945;28;20228;-92
2021/01/26 00:04:19;;;;;;;13.13;10.55;;;;;;;;;;5060993;28;20233;-93
2021/01/26 00:06:46;;;;;;;13.77;10.93;;;;;;;;;;5060608;28;20178;-93
2021/01/26 00:09:14;;;;;;;13.50;10.65;;;;;;;;;;5060885;28;20208;-93
2021/01/26 00:11:41;;;;;;;14.50;11.63;;;;;;;;;;5060476;28;20274;-92
2021/01/26 00:14:08;;;;;;;13.70;11.27;;;;;;;;;;5060361;28;20558;-93
2021/01/26 00:16:35;;;;;;;15.50;12.43;;;;;;;;;;5059851;28;20182;-92
2021/01/26 00:19:04;;;;;;;15.18;11.50;;;;;;;;;;5060529;28;20194;-91
2021/01/26 00:21:31;;;;;;;14.40;10.98;;;;;;;;;;5060419;28;20220;-92
2021/01/26 00:24:11;;;;;;;15.30;11.85;;;;;;;;;;5060191;28;20186;-92
2021/01/26 00:26:45;;;;;;;15.45;11.70;;;;;;;;;;4980270;28;20617;-92
2021/01/26 00:29:12;;;;;;;17.95;10.40;;;;;;;;;;4980013;28;20219;-91
2021/01/26 00:31:39;;;;;;;16.38;11.90;;;;;;;;;;4980326;28;20201;-91
2021/01/26 00:34:06;;;;;;;12.82;10.32;;;;;;;;;;4980326;28;20192;-90
2021/01/26 00:36:33;;;;;;;17.48;11.77;;;;;;;;;;4984753;28;20215;-92
2021/01/26 00:39:00;;;;;;;13.93;11.93;;;;;;;;;;4983884;28;20547;-92
2021/01/26 00:41:27;;;;;;;17.60;11.10;;;;;;;;;;4985426;28;20465;-90
2021/01/26 00:43:55;;;;;;;14.35;11.35;;;;;;;;;;4984832;28;20272;-91
2021/01/26 00:46:22;;;;;;;14.18;11.13;;;;;;;;;;4987621;28;20259;-92
2021/01/26 00:48:49;;;;;;;14.45;11.55;;;;;;;;;;4983454;28;20571;-91
2021/01/26 00:51:16;;;;;;;13.85;10.95;;;;;;;;;;4980363;28;20196;-91
2021/01/26 00:53:43;;;;;;;14.45;10.73;;;;;;;;;;4980217;28;20196;-91
2021/01/26 00:56:10;;;;;;;13.52;12.00;;;;;;;;;;4987606;28;20185;-91
2021/01/26 00:58:37;;;;;;;14.23;12.38;;;;;;;;;;5060606;28;20254;-91
2021/01/26 01:01:05;;;;;;;12.07;10.45;;;;;;;;;;5065525;28;20208;-91
2021/01/26 01:03:32;;;;;;;12.85;9.98;;;;;;;;;;5059788;28;20194;-91
2021/01/26 01:05:59;;;;;;;15.38;12.00;;;;;;;;;;5058910;28;20210;-91
2021/01/26 01:08:27;;;;;;;13.25;10.38;;;;;;;;;;5059339;28;20523;-92
2021/01/26 01:10:54;;;;;;;14.65;11.82;;;;;;;;;;5059037;28;20246;-92
2021/01/26 01:13:22;;;;;;;14.48;10.27;;;;;;;;;;5059347;28;20186;-92
2021/01/26 01:15:49;;;;;;;12.55;10.75;;;;;;;;;;5059703;28;20198;-91
2021/01/26 01:18:17;;;;;;;12.35;11.10;;;;;;;;;;5058608;28;20621;-91
2021/01/26 01:20:44;;;;;;;13.13;10.25;;;;;;;;;;5059086;28;20186;-93
2021/01/26 01:23:11;;;;;;;14.93;10.90;;;;;;;;;;5059482;28;20236;-92
2021/01/26 01:25:38;;;;;;;11.73;10.23;;;;;;;;;;5059506;28;20554;-92
2021/01/26 01:28:06;;;;;;;14.10;10.85;;;;;;;;;;5059193;28;20209;-93
2021/01/26 01:30:35;;;;;;;13.23;10.95;;;;;;;;;;5059057;28;20551;-91
2021/01/26 01:33:05;;;;;;;14.30;11.45;;;;;;;;;;5058755;28;20607;-93
2021/01/26 01:35:33;;;;;;;15.75;11.55;;;;;;;;;;5059492;28;20277;-92
2021/01/26 01:38:00;;;;;;;15.32;11.40;;;;;;;;;;5059174;28;20433;-91
2021/01/26 01:40:37;;;;;;;12.45;11.07;;;;;;;;;;5059438;28;20201;-90
2021/01/26 01:43:07;;;;;;;18.35;13.77;;;;;;;;;;5059894;28;20208;-92
2021/01/26 01:45:37;;;;;;;17.75;13.50;;;;;;;;;;5059350;28;20241;-92
2021/01/26 01:48:08;;;;;;;15.52;12.15;;;;;;;;;;5058561;28;20300;-92
2021/01/26 01:50:45;;;;;;;14.00;10.88;;;;;;;;;;5058686;28;20190;-91
2021/01/26 01:53:19;;;;;;;16.35;13.02;;;;;;;;;;5059066;28;20247;-93
2021/01/26 01:55:52;;;;;;;13.32;11.65;;;;;;;;;;5058750;28;20201;-92
2021/01/26 01:58:27;;;;;;;13.48;11.57;;;;;;;;;;5058156;28;20189;-92
2021/01/26 02:00:59;;;;;;;14.57;11.95;;;;;;;;;;5058601;28;20189;-92
2021/01/26 02:03:29;;;;;;;12.27;10.40;;;;;;;;;;5059197;28;20205;-92
2021/01/26 02:05:59;;;;;;;14.60;11.90;;;;;;;;;;5058746;28;20616;-91
2021/01/26 02:08:34;;;;;;;13.65;11.88;;;;;;;;;;5059205;28;20198;-92
2021/01/26 02:11:04;;;;;;;18.55;13.65;;;;;;;;;;5058414;28;20173;-92
2021/01/26 02:13:31;;;;;;;17.38;13.27;;;;;;;;;;5058777;28;20304;-93
2021/01/26 02:16:01;;;;;;;13.25;11.25;;;;;;;;;;5059062;28;20272;-92
2021/01/26 02:18:56;;;;;;;11.75;10.35;;;;;;;;;;5057864;28;20226;-91
2021/01/26 02:22:05;;;;;;;13.15;11.00;;;;;;;;;;5058811;28;20270;-91
2021/01/26 02:25:13;;;;;;;13.90;10.63;;;;;;;;;;5058260;28;20255;-91
2021/01/26 02:28:18;;;;;;;11.00;9.55;;;;;;;;;;5058271;28;20288;-93
2021/01/26 02:30:58;;;;;;;13.80;10.35;;;;;;;;;;5059011;28;20197;-91
2021/01/26 02:34:22;;;;;;;11.60;9.07;;;;;;;;;;5058221;28;20197;-93
2021/01/26 02:37:14;;;;;;;11.70;9.20;;;;;;;;;;5017378;28;20541;-92
2021/01/26 02:40:06;;;;;;;11.95;10.52;;;;;;;;;;5017355;28;20187;-91
2021/01/26 02:42:57;;;;;;;9.90;8.88;;;;;;;;;;5015837;28;20230;-92
2021/01/26 02:45:31;;;;;;;12.65;9.65;;;;;;;;;;5017958;28;20338;-91
2021/01/26 02:48:34;;;;;;;12.57;10.88;;;;;;;;;;5017103;28;20222;-91
2021/01/26 02:51:06;;;;;;;12.80;10.55;;;;;;;;;;5016951;28;20183;-90
2021/01/26 02:53:39;;;;;;;13.48;10.00;;;;;;;;;;5016960;28;20310;-92
2021/01/26 02:56:17;;;;;;;12.73;10.02;;;;;;;;;;5016757;28;20183;-91
2021/01/26 02:58:51;;;;;;;11.40;9.90;;;;;;;;;;5016807;28;20306;-91
2021/01/26 03:01:19;;;;;;;12.63;9.95;;;;;;;;;;5017668;28;20206;-91
2021/01/26 03:03:50;;;;;;;12.88;10.48;;;;;;;;;;5000602;28;20523;-91
2021/01/26 03:06:21;;;;;;;13.02;10.27;;;;;;;;;;5016573;28;20203;-92
2021/01/26 03:08:58;;;;;;;13.10;9.60;;;;;;;;;;5017885;28;20282;-91
2021/01/26 03:11:38;;;;;;;12.20;10.88;;;;;;;;;;5020455;28;20239;-92
2021/01/26 03:14:12;;;;;;;11.60;9.57;;;;;;;;;;5047795;28;20527;-91
2021/01/26 03:16:39;;;;;;;10.40;8.95;;;;;;;;;;5060703;28;20181;-91
2021/01/26 03:19:12;;;;;;;11.10;8.82;;;;;;;;;;5061248;28;20182;-92
2021/01/26 03:21:44;;;;;;;9.80;8.25;;;;;;;;;;5062074;28;20433;-91
2021/01/26 03:24:17;;;;;;;10.52;8.82;;;;;;;;;;5061858;28;20565;-93
2021/01/26 03:26:45;;;;;;;10.60;9.13;;;;;;;;;;5061758;28;20221;-91
2021/01/26 03:29:16;;;;;;;9.65;8.35;;;;;;;;;;5061755;28;20197;-92
2021/01/26 03:31:46;;;;;;;10.13;8.35;;;;;;;;;;5061750;28;20274;-91
2021/01/26 03:34:14;;;;;;;10.98;8.70;;;;;;;;;;5061322;28;20224;-93
2021/01/26 03:36:42;;;;;;;10.02;9.02;;;;;;;;;;5061687;28;20204;-92
2021/01/26 03:39:10;;;;;;;12.30;9.40;;;;;;;;;;5061904;28;20202;-92
2021/01/26 03:41:37;;;;;;;9.98;8.98;;;;;;;;;;5061625;28;20433;-91
2021/01/26 03:44:06;;;;;;;10.38;8.70;;;;;;;;;;5061519;28;20271;-92
2021/01/26 03:47:11;;;;;;;12.10;9.43;;;;;;;;;;5060872;28;20205;-92
2021/01/26 03:50:21;;;;;;;11.48;8.73;;;;;;;;;;5059240;28;20205;-92
2021/01/26 03:53:34;;;;;;;10.50;8.57;;;;;;;;;;4999799;28;20310;-91
2021/01/26 03:56:07;;;;;;;11.05;9.25;;;;;;;;;;4998125;28;20282;-90
2021/01/26 03:58:49;;;;;;;10.95;9.85;;;;;;;;;;5000197;28;20580;-91
2021/01/26 04:01:27;;;;;;;12.27;10.20;;;;;;;;;;4999649;28;20203;-90
2021/01/26 04:04:01;;;;;;;11.30;9.90;;;;;;;;;;5000131;28;20569;-91
2021/01/26 04:06:35;;;;;;;9.07;8.18;;;;;;;;;;4999802;28;20339;-91
2021/01/26 04:09:07;;;;;;;10.77;9.68;;;;;;;;;;5000166;28;20210;-91
2021/01/26 04:11:42;;;;;;;9.38;7.82;;;;;;;;;;5000045;28;20542;-91
2021/01/26 04:14:15;;;;;;;10.73;9.00;;;;;;;;;;5000226;28;20211;-91
2021/01/26 04:16:48;;;;;;;10.35;8.38;;;;;;;;;;4999796;28;20236;-92
2021/01/26 04:19:20;;;;;;;9.27;8.35;;;;;;;;;;4999850;28;20271;-91
2021/01/26 04:21:48;;;;;;;9.05;7.40;;;;;;;;;;4999630;28;20184;-91
2021/01/26 04:24:15;;;;;;;9.85;8.70;;;;;;;;;;4999753;28;20202;-93
2021/01/26 04:26:42;;;;;;;9.77;8.43;;;;;;;;;;4999579;28;20224;-91
2021/01/26 04:29:09;;;;;;;9.23;7.10;;;;;;;;;;5005869;28;20211;-91
2021/01/26 04:31:36;;;;;;;8.90;7.55;;;;;;;;;;5060721;28;20216;-91
2021/01/26 04:34:05;;;;;;;8.30;7.10;;;;;;;;;;5060499;28;20213;-91
2021/01/26 04:36:32;;;;;;;7.65;6.85;;;;;;;;;;5059940;28;20207;-92
2021/01/26 04:38:59;;;;;;;9.50;6.97;;;;;;;;;;5060160;28;20273;-91
2021/01/26 04:41:36;;;;;;;7.35;6.65;;;;;;;;;;5060193;28;20281;-92
2021/01/26 04:44:48;;;;;;;6.15;5.38;;;;;;;;;;5060420;28;20197;-89
2021/01/26 04:47:21;;;;;;;9.43;7.22;;;;;;;;;;5059788;28;20305;-91
2021/01/26 04:50:01;;;;;;;7.53;6.38;;;;;;;;;;5059617;28;20224;-91
2021/01/26 04:52:48;;;;;;;7.07;6.03;;;;;;;;;;5059837;28;20288;-91
2021/01/26 04:55:27;;;;;;;6.90;6.18;;;;;;;;;;5059456;28;20182;-91
2021/01/26 04:58:23;;;;;;;6.70;5.63;;;;;;;;;;5059796;28;20269;-91
2021/01/26 05:01:01;;;;;;;5.85;4.90;;;;;;;;;;5059552;28;20181;-90
2021/01/26 05:03:48;;;;;;;5.13;4.35;;;;;;;;;;5059074;28;20178;-92
2021/01/26 05:06:19;;;;;;;4.50;4.10;;;;;;;;;;5058774;28;20650;-91
2021/01/26 05:08:51;;;;;;;4.40;4.00;;;;;;;;;;5058966;28;20337;-91
2021/01/26 05:11:21;;;;;;;4.00;3.60;;;;;;;;;;5059753;28;20198;-92
2021/01/26 05:13:52;;;;;;;3.70;3.30;;;;;;;;;;5059760;28;20232;-92
2021/01/26 05:16:25;;;;;;;3.40;3.10;;;;;;;;;;5058941;28;20274;-92
2021/01/26 05:18:57;;;;;;;3.40;3.10;;;;;;;;;;5060291;28;20197;-93
2021/01/26 05:21:33;;;;;;;3.60;3.30;;;;;;;;;;5059948;28;20202;-92
2021/01/26 05:24:06;;;;;;;3.25;2.95;;;;;;;;;;5059511;28;20204;-92
2021/01/26 05:26:33;;;;;;;3.38;2.50;;;;;;;;;;5059346;28;20229;-94
2021/01/26 05:29:01;;;;;;;3.20;2.40;;;;;;;;;;5056027;28;20198;-90
2021/01/26 05:31:28;;;;;;;3.00;2.80;;;;;;;;;;5050585;28;20198;-94
2021/01/26 05:34:03;;;;;;;2.72;2.53;;;;;;;;;;5058791;28;20208;-93
2021/01/26 05:36:31;;;;;;;2.22;2.03;;;;;;;;;;5059231;28;20201;-92
2021/01/26 05:38:58;;;;;;;2.17;2.08;;;;;;;;;;5059124;28;20174;-92
2021/01/26 05:41:26;;;;;;;2.40;2.30;;;;;;;;;;5059800;28;20224;-92
2021/01/26 05:43:54;;;;;;;2.30;2.15;;;;;;;;;;5059374;28;20194;-93
2021/01/26 05:46:36;;;;;;;3.75;3.38;;;;;;;;;;5058832;28;20283;-94
2021/01/26 05:49:04;;;;;;;2.90;2.63;;;;;;;;;;5059722;28;20198;-93
2021/01/26 05:51:37;;;;;;;2.05;1.90;;;;;;;;;;5059650;28;20193;-93
2021/01/26 05:54:10;;;;;;;2.20;2.10;;;;;;;;;;5059061;28;20194;-94
2021/01/26 05:56:52;;;;;;;2.13;1.95;;;;;;;;;;5059213;28;20202;-93
2021/01/26 05:59:26;;;;;;;2.40;2.22;;;;;;;;;;5057056;28;20203;-94
2021/01/26 06:01:53;;;;;;;2.35;2.13;;;;;;;;;;5058963;28;20198;-94
2021/01/26 06:04:29;;;;;;;2.58;2.38;;;;;;;;;;5060124;28;20197;-93
2021/01/26 06:07:00;;;;;;;2.47;1.90;;;;;;;;;;5059166;28;20225;-93
2021/01/26 06:09:39;;;;;;;2.40;2.25;;;;;;;;;;5058391;28;20182;-92
2021/01/26 06:12:20;;;;;;;2.28;2.15;;;;;;;;;;5058741;28;20263;-94
2021/01/26 06:15:08;;;;;;;3.78;2.58;;;;;;;;;;5059657;28;20259;-93
2021/01/26 06:17:36;;;;;;;2.45;2.25;;;;;;;;;;5059589;28;20248;-93
2021/01/26 06:20:11;;;;;;;2.70;2.50;;;;;;;;;;5059510;28;20174;-94
2021/01/26 06:22:39;;;;;;;3.40;2.50;;;;;;;;;;5058696;28;20535;-93
2021/01/26 06:25:12;;;;;;;3.13;2.70;;;;;;;;;;5059155;28;20273;-95
2021/01/26 06:27:59;;;;;;;2.70;2.50;;;;;;;;;;5058513;28;20533;-94
2021/01/26 06:30:51;;;;;;;2.72;2.53;;;;;;;;;;5059047;28;20205;-95
2021/01/26 06:37:56;;;;;;;3.70;3.28;;;;;;;;;;5045683;28;20201;-93
2021/01/26 06:40:39;;;;;;;2.33;2.13;;;;;;;;;;5057099;28;20204;-93
2021/01/26 06:43:14;;;;;;;3.58;3.03;;;;;;;;;;5060130;28;20193;-92
2021/01/26 06:45:52;;;;;;;6.10;3.05;;;;;;;;;;5062626;28;20450;-92
2021/01/26 06:48:50;;;;;;;2.40;2.20;;;;;;;;;;5061943;28;20259;-92
2021/01/26 06:51:51;;;;;;;2.08;1.98;;;;;;;;;;5042114;28;20606;-93
2021/01/26 06:55:21;;;;;;;3.55;2.75;;;;;;;;;;5055677;28;20525;-93
2021/01/26 06:58:22;;;;;;;2.17;2.05;;;;;;;;;;5058486;28;20196;-91
2021/01/26 07:01:29;;;;;;;2.53;2.33;;;;;;;;;;5044631;28;20540;-94
2021/01/26 07:04:27;;;;;;;2.30;2.10;;;;;;;;;;5041651;28;20320;-92
2021/01/26 07:08:03;;;;;;;2.22;2.05;;;;;;;;;;5042256;28;20502;-93
2021/01/26 07:10:58;;;;;;;1.65;1.55;;;;;;;;;;5041889;28;20259;-94
2021/01/26 07:13:32;;;;;;;2.30;2.10;;;;;;;;;;5041848;28;20199;-94
2021/01/26 07:16:30;;;;;;;3.35;1.75;;;;;;;;;;5055422;28;20181;-93
2021/01/26 07:19:27;;;;;;;3.13;1.92;;;;;;;;;;5061016;28;20221;-92
2021/01/26 07:22:35;;;;;;;2.10;2.00;;;;;;;;;;5061325;28;20201;-92
2021/01/26 07:25:19;;;;;;;2.30;2.20;;;;;;;;;;5000853;28;20511;-93
2021/01/26 07:28:23;;;;;;;1.88;1.75;;;;;;;;;;5000329;28;20597;-93
2021/01/26 07:30:55;;;;;;;2.45;2.35;;;;;;;;;;5001265;28;20231;-92
2021/01/26 07:33:28;;;;;;;1.80;1.70;;;;;;;;;;5000796;28;20203;-90
2021/01/26 07:36:08;;;;;;;1.85;1.75;;;;;;;;;;5000414;28;20196;-91
2021/01/26 07:38:40;;;;;;;2.15;1.90;;;;;;;;;;4991752;28;20286;-92
2021/01/26 07:41:12;;;;;;;1.98;1.88;;;;;;;;;;4999843;28;20279;-94
2021/01/26 07:43:45;;;;;;;2.10;2.00;;;;;;;;;;4981303;28;20197;-92
2021/01/26 07:46:19;;;;;;;2.40;2.20;;;;;;;;;;4961670;28;20454;-91
2021/01/26 07:48:56;;;;;;;3.78;2.03;;;;;;;;;;4960999;28;20233;-94
2021/01/26 07:51:28;;;;;;;2.88;2.20;;;;;;;;;;4974798;28;20191;-94
2021/01/26 07:54:04;;;;;;;1.88;1.77;;;;;;;;;;4980938;28;20196;-91
2021/01/26 07:56:34;;;;;;;3.70;2.22;;;;;;;;;;4980067;28;20262;-89
2021/01/26 07:59:07;;;;;;;2.33;2.13;;;;;;;;;;4980492;28;20224;-91
2021/01/26 08:01:39;;;;;;;3.85;1.95;;;;;;;;;;5011484;28;20205;-89
2021/01/26 08:04:06;;;;;;;2.45;1.85;;;;;;;;;;5060743;28;20229;-91
2021/01/26 08:06:55;;;;;;;3.78;2.40;;;;;;;;;;5060724;28;20201;-90
2021/01/26 08:09:27;;;;;;;2.20;2.00;;;;;;;;;;5060705;28;20205;-92
2021/01/26 08:12:01;;;;;;;2.45;2.25;;;;;;;;;;5060146;28;20232;-90
2021/01/26 08:14:35;;;;;;;2.65;2.45;;;;;;;;;;5060287;28;20186;-90
2021/01/26 08:17:05;;;;;;;2.80;2.33;;;;;;;;;;5063421;28;20230;-93
2021/01/26 08:19:35;;;;;;;2.25;2.05;;;;;;;;;;5055930;28;20292;-92
2021/01/26 08:22:23;;;;;;;3.40;2.50;;;;;;;;;;5055026;28;20532;-90
2021/01/26 08:25:09;;;;;;;2.15;2.00;;;;;;;;;;5052913;28;20213;-91
2021/01/26 08:27:54;;;;;;;3.30;2.00;;;;;;;;;;5045303;28;20221;-90
2021/01/26 08:31:03;;;;;;;2.22;2.03;;;;;;;;;;5059757;28;20281;-91
2021/01/26 08:33:39;;;;;;;3.78;2.30;;;;;;;;;;5060483;28;20273;-90
2021/01/26 08:36:34;;;;;;;4.25;3.47;;;;;;;;;;5059398;28;20276;-89
2021/01/26 08:39:08;;;;;;;3.20;2.15;;;;;;;;;;5057794;28;20217;-90
2021/01/26 08:41:47;;;;;;;3.22;2.38;;;;;;;;;;5058994;28;20285;-88
2021/01/26 08:44:54;;;;;;;2.78;2.35;;;;;;;;;;5059392;28;20563;-89
2021/01/26 08:47:48;;;;;;;1.95;1.85;;;;;;;;;;5052933;28;20222;-89
2021/01/26 08:50:29;;;;;;;1.95;1.85;;;;;;;;;;5058590;28;20229;-89
2021/01/26 08:53:16;;;;;;;4.07;2.22;;;;;;;;;;5057442;28;20201;-88
2021/01/26 08:55:45;;;;;;;2.30;1.80;;;;;;;;;;5059740;28;20198;-91
2021/01/26 08:58:34;;;;;;;2.55;2.20;;;;;;;;;;5059294;28;20194;-94
2021/01/26 09:01:01;;;;;;;4.97;2.85;;;;;;;;;;5058100;28;20232;-90
2021/01/26 09:03:38;;;;;;;3.42;3.03;;;;;;;;;;5048670;28;20201;-90
2021/01/26 09:06:09;;;;;;;5.13;3.78;;;;;;;;;;5056932;28;20202;-89
2021/01/26 09:09:01;;;;;;;3.63;3.15;;;;;;;;;;5045950;28;20214;-90
2021/01/26 09:11:49;;;;;;;3.72;3.33;;;;;;;;;;5050343;28;20202;-91
2021/01/26 09:14:31;;;;;;;4.45;2.88;;;;;;;;;;5045714;28;20202;-91
2021/01/26 09:17:01;;;;;;;4.88;3.28;;;;;;;;;;5049930;28;20647;-89
2021/01/26 09:19:33;;;;;;;3.72;3.35;;;;;;;;;;5042670;28;20218;-91
2021/01/26 09:22:11;;;;;;;3.47;3.17;;;;;;;;;;5040159;28;20274;-91
2021/01/26 09:24:38;;;;;;;4.10;2.90;;;;;;;;;;5054025;28;20201;-90
2021/01/26 09:27:23;;;;;;;3.25;2.65;;;;;;;;;;5055781;28;20528;-92
2021/01/26 09:30:12;;;;;;;4.70;3.25;;;;;;;;;;5038975;28;20179;-91
2021/01/26 09:32:41;;;;;;;4.05;3.60;;;;;;;;;;5038899;28;20506;-90
2021/01/26 09:35:22;;;;;;;3.95;3.47;;;;;;;;;;5055286;28;20202;-91
2021/01/26 09:38:10;;;;;;;5.20;3.88;;;;;;;;;;5057832;28;20189;-91
2021/01/26 09:40:41;;;;;;;5.25;3.90;;;;;;;;;;5058594;28;20475;-89
2021/01/26 09:43:17;;;;;;;5.35;3.47;;;;;;;;;;5054663;28;20182;-91
2021/01/26 09:45:45;;;;;;;5.15;4.20;;;;;;;;;;5052523;28;20266;-92
2021/01/26 09:48:17;;;;;;;6.30;5.47;;;;;;;;;;5055067;28;20265;-92
2021/01/26 09:50:45;;;;;;;6.18;5.50;;;;;;;;;;5058038;28;20215;-91
2021/01/26 09:53:19;;;;;;;7.18;6.18;;;;;;;;;;5058494;28;20281;-90
2021/01/26 09:55:51;;;;;;;6.85;5.63;;;;;;;;;;5024562;28;20212;-91
2021/01/26 09:58:19;;;;;;;8.50;5.90;;;;;;;;;;5059019;28;20232;-92
2021/01/26 10:00:46;;;;;;;7.00;6.30;;;;;;;;;;5058853;28;20209;-95
2021/01/26 10:03:13;;;;;;;7.13;5.70;;;;;;;;;;5059191;28;20198;-95
2021/01/26 10:05:41;;;;;;;6.38;5.20;;;;;;;;;;5057474;28;20201;-93
2021/01/26 10:08:13;;;;;;;6.30;5.40;;;;;;;;;;5058191;28;20936;-92
2021/01/26 10:10:41;;;;;;;7.03;5.13;;;;;;;;;;5058964;28;20205;-92
2021/01/26 10:13:35;;;;;;;6.93;5.57;;;;;;;;;;5058937;28;20278;-92
2021/01/26 10:16:25;;;;;;;6.70;5.13;;;;;;;;;;5057771;28;20209;-93
2021/01/26 10:18:53;;;;;;;5.82;4.85;;;;;;;;;;5060344;28;20233;-94
2021/01/26 10:21:28;;;;;;;5.60;5.03;;;;;;;;;;5062509;28;20267;-91
2021/01/26 10:24:14;;;;;;;6.57;5.47;;;;;;;;;;5062642;28;20280;-94
2021/01/26 10:26:52;;;;;;;;;;;;;;;;;;;;;
2021/01/26 10:29:33;;;;;;;6.13;5.35;;;;;;;;;;5061711;28;20224;-93
2021/01/26 10:32:02;;;;;;;8.20;6.53;;;;;;;;;;5061912;28;20266;-93
2021/01/26 10:34:49;;;;;;;6.93;5.65;;;;;;;;;;5062031;28;20241;-95
2021/01/26 10:37:30;;;;;;;7.80;5.68;;;;;;;;;;5060687;28;20198;-93
2021/01/26 10:40:39;;;;;;;8.05;7.13;;;;;;;;;;5042595;28;20587;-93
2021/01/26 10:43:18;;;;;;;9.57;6.55;;;;;;;;;;5054774;28;20206;-94
2021/01/26 10:45:50;;;;;;;6.38;5.70;;;;;;;;;;5062511;28;20201;-94
2021/01/26 10:48:32;;;;;;;7.28;6.53;;;;;;;;;;5062252;28;20222;-91
2021/01/26 10:51:12;;;;;;;7.68;6.88;;;;;;;;;;5059873;28;20261;-93
2021/01/26 10:53:44;;;;;;;9.07;7.72;;;;;;;;;;5042290;28;20293;-94
2021/01/26 10:56:13;;;;;;;9.20;6.78;;;;;;;;;;5060037;28;20182;-94
2021/01/26 10:58:44;;;;;;;8.43;6.93;;;;;;;;;;5062365;28;20194;-92
2021/01/26 11:01:27;;;;;;;9.77;7.70;;;;;;;;;;5063052;28;20201;-93
2021/01/26 11:04:17;;;;;;;8.80;6.00;;;;;;;;;;5042853;28;20555;-94
2021/01/26 11:06:59;;;;;;;8.85;7.32;;;;;;;;;;5042499;28;20217;-95
2021/01/26 11:09:48;;;;;;;11.30;7.78;;;;;;;;;;5041086;28;20313;-93
2021/01/26 11:12:18;;;;;;;9.00;7.63;;;;;;;;;;5044655;28;20205;-95
2021/01/26 11:14:46;;;;;;;8.35;6.63;;;;;;;;;;5044083;28;20285;-95
2021/01/26 11:17:13;;;;;;;9.52;7.60;;;;;;;;;;5043275;28;20504;-96
2021/01/26 11:19:41;;;;;;;9.48;6.88;;;;;;;;;;5061325;28;20197;-95
2021/01/26 11:22:08;;;;;;;9.70;6.90;;;;;;;;;;5066034;28;20217;-95
2021/01/26 11:24:38;;;;;;;8.68;7.00;;;;;;;;;;5076360;28;20197;-95
2021/01/26 11:27:06;;;;;;;7.93;6.32;;;;;;;;;;5075552;28;20202;-95
2021/01/26 11:29:34;;;;;;;8.27;6.78;;;;;;;;;;5072328;28;20301;-94
2021/01/26 11:32:02;;;;;;;8.63;6.53;;;;;;;;;;5071155;28;20194;-95
2021/01/26 11:34:30;;;;;;;7.15;5.88;;;;;;;;;;5064949;28;20194;-96
2021/01/26 11:36:57;;;;;;;7.38;5.93;;;;;;;;;;5063326;28;20531;-94
2021/01/26 11:39:25;;;;;;;8.00;6.05;;;;;;;;;;5062482;28;20216;-92
2021/01/26 11:41:52;;;;;;;6.88;5.80;;;;;;;;;;5061137;28;20559;-93
2021/01/26 11:47:05;;;;;;;7.38;6.25;;;;;;;;;;5034122;28;20233;-92
2021/01/26 11:49:32;;;;;;;9.32;5.57;;;;;;;;;;5068034;28;20575;-93
2021/01/26 11:51:59;;;;;;;9.25;6.95;;;;;;;;;;5061232;28;20182;-94
2021/01/26 11:54:27;;;;;;;6.97;5.78;;;;;;;;;;5061610;28;20198;-94
2021/01/26 11:56:54;;;;;;;8.10;6.25;;;;;;;;;;5061519;28;20591;-94
2021/01/26 11:59:21;;;;;;;6.85;4.88;;;;;;;;;;5061385;28;20202;-93
2021/01/26 12:01:53;;;;;;;6.60;5.03;;;;;;;;;;5058879;28;20641;-93
2021/01/26 12:04:21;;;;;;;5.50;4.97;;;;;;;;;;5064481;28;20206;-93
2021/01/26 12:06:48;;;;;;;5.72;4.95;;;;;;;;;;5060866;28;20213;-93
2021/01/26 12:09:15;;;;;;;5.70;5.03;;;;;;;;;;5060795;28;20217;-93
2021/01/26 12:11:43;;;;;;;5.55;4.88;;;;;;;;;;5061732;28;20929;-94
2021/01/26 12:14:16;;;;;;;5.10;4.57;;;;;;;;;;5062557;28;20281;-94
2021/01/26 12:17:21;;;;;;;5.25;4.75;;;;;;;;;;5063391;28;20201;-94
2021/01/26 12:20:18;;;;;;;5.25;4.75;;;;;;;;;;4961056;29;20201;-95
2021/01/26 12:22:45;;;;;;;5.60;4.57;;;;;;;;;;4980114;28;20279;-94
2021/01/26 12:25:14;;;;;;;5.10;4.07;;;;;;;;;;4980907;28;20270;-91
2021/01/26 12:27:49;;;;;;;6.25;5.07;;;;;;;;;;4979954;28;20196;-93
2021/01/26 12:30:18;;;;;;;5.47;4.90;;;;;;;;;;4980649;28;20220;-95
2021/01/26 12:37:55;;;;;;;6.28;5.57;;;;;;;;;;5056549;28;20234;-92
2021/01/26 12:40:22;;;;;;;5.72;5.00;;;;;;;;;;5038915;28;20208;-91
2021/01/26 12:42:53;;;;;;;5.43;4.40;;;;;;;;;;5052200;28;20267;-92
2021/01/26 12:45:24;;;;;;;4.72;4.28;;;;;;;;;;5043797;28;20201;-91
2021/01/26 12:47:52;;;;;;;5.50;5.00;;;;;;;;;;5040424;28;20191;-91
2021/01/26 12:50:40;;;;;;;4.45;4.05;;;;;;;;;;5040569;28;20226;-94
2021/01/26 12:53:20;;;;;;;4.75;4.35;;;;;;;;;;5058694;28;20267;-94
2021/01/26 12:55:47;;;;;;;4.32;3.78;;;;;;;;;;5060083;28;20197;-94
2021/01/26 12:58:18;;;;;;;4.60;4.15;;;;;;;;;;5060599;28;20202;-95
2021/01/26 13:00:48;;;;;;;4.50;3.90;;;;;;;;;;5059789;28;20205;-96
2021/01/26 13:03:15;;;;;;;5.43;4.93;;;;;;;;;;5059770;28;20237;-94
2021/01/26 13:05:42;;;;;;;4.32;3.88;;;;;;;;;;5060015;28;20280;-92
2021/01/26 13:08:09;;;;;;;5.13;4.63;;;;;;;;;;5059449;28;20546;-92
2021/01/26 13:10:46;;;;;;;5.82;4.50;;;;;;;;;;5059451;28;20221;-93
2021/01/26 13:13:13;;;;;;;4.45;4.05;;;;;;;;;;5060995;28;20422;-95
2021/01/26 13:15:45;;;;;;;5.97;4.72;;;;;;;;;;5060432;28;20232;-93
2021/01/26 13:18:12;;;;;;;6.82;5.80;;;;;;;;;;5044824;28;20213;-94
2021/01/26 13:20:41;;;;;;;5.60;5.07;;;;;;;;;;5039841;28;20247;-96
2021/01/26 13:23:09;;;;;;;6.10;5.53;;;;;;;;;;5040515;28;20191;-94
2021/01/26 13:26:07;;;;;;;9.45;6.20;;;;;;;;;;5044587;28;20222;-96
2021/01/26 13:28:36;;;;;;;7.85;6.30;;;;;;;;;;5004991;28;20203;-94
2021/01/26 13:31:04;;;;;;;6.50;5.90;;;;;;;;;;5028939;28;20228;-95
2021/01/26 13:33:37;;;;;;;6.00;5.38;;;;;;;;;;5040423;28;20280;-94
2021/01/26 13:36:05;;;;;;;6.15;5.22;;;;;;;;;;5040712;28;20249;-96
2021/01/26 13:38:32;;;;;;;6.38;5.25;;;;;;;;;;5045044;28;20197;-94
2021/01/26 13:41:01;;;;;;;8.55;5.63;;;;;;;;;;5059807;28;20202;-94
2021/01/26 13:43:29;;;;;;;6.15;5.65;;;;;;;;;;5059689;28;20201;-92
2021/01/26 13:45:56;;;;;;;7.22;6.40;;;;;;;;;;5057530;28;20193;-95
2021/01/26 13:48:24;;;;;;;6.82;6.15;;;;;;;;;;5058704;28;20194;-93
2021/01/26 13:50:51;;;;;;;7.18;6.43;;;;;;;;;;5058535;28;20228;-93
2021/01/26 13:53:18;;;;;;;5.93;5.32;;;;;;;;;;5058915;28;20198;-96
2021/01/26 13:55:46;;;;;;;5.93;5.32;;;;;;;;;;5059380;28;20604;-95
2021/01/26 13:58:13;;;;;;;7.35;6.10;;;;;;;;;;5059610;28;20499;-93
2021/01/26 14:00:41;;;;;;;6.82;5.93;;;;;;;;;;5057003;28;20197;-92
2021/01/26 14:03:08;;;;;;;5.70;5.10;;;;;;;;;;5059012;28;20554;-91
2021/01/26 14:05:36;;;;;;;8.27;6.32;;;;;;;;;;5059495;28;20289;-92
2021/01/26 14:08:05;;;;;;;7.50;6.43;;;;;;;;;;5058423;28;20182;-93
2021/01/26 14:10:34;;;;;;;6.30;5.40;;;;;;;;;;5057317;28;20217;-92
2021/01/26 14:13:02;;;;;;;7.32;6.03;;;;;;;;;;5058743;28;20193;-94
2021/01/26 14:15:29;;;;;;;7.55;6.30;;;;;;;;;;5058444;28;20577;-93
2021/01/26 14:17:58;;;;;;;7.07;6.03;;;;;;;;;;5055532;28;20192;-93
2021/01/26 14:20:26;;;;;;;7.28;5.93;;;;;;;;;;5058823;28;20205;-92
2021/01/26 14:22:53;;;;;;;7.75;6.18;;;;;;;;;;5058454;28;20213;-92
2021/01/26 14:25:20;;;;;;;8.23;6.13;;;;;;;;;;5053967;28;20217;-92
2021/01/26 14:27:47;;;;;;;9.05;6.70;;;;;;;;;;5038442;28;20198;-94
2021/01/26 14:30:18;;;;;;;7.85;6.50;;;;;;;;;;5039034;28;20214;-93
2021/01/26 14:32:45;;;;;;;8.15;6.28;;;;;;;;;;5038996;28;20205;-92
2021/01/26 14:35:29;;;;;;;6.60;5.30;;;;;;;;;;5056212;28;20196;-93
2021/01/26 14:37:56;;;;;;;7.18;6.45;;;;;;;;;;5038233;28;20191;-92
2021/01/26 14:40:24;;;;;;;7.95;6.05;;;;;;;;;;5038033;28;20213;-92
2021/01/26 14:42:51;;;;;;;8.55;5.95;;;;;;;;;;5018482;28;20203;-92
2021/01/26 14:45:18;;;;;;;8.25;6.38;;;;;;;;;;5018919;28;20468;-93
2021/01/26 14:47:46;;;;;;;8.40;6.68;;;;;;;;;;5018578;28;20203;-93
2021/01/26 14:50:17;;;;;;;6.68;5.53;;;;;;;;;;5019018;28;20223;-93
2021/01/26 14:52:45;;;;;;;9.95;6.35;;;;;;;;;;5018928;28;20208;-91
2021/01/26 14:55:13;;;;;;;7.65;6.55;;;;;;;;;;5026254;28;20267;-91
2021/01/26 14:57:40;;;;;;;7.20;6.15;;;;;;;;;;5038219;28;20608;-92
2021/01/26 15:00:11;;;;;;;7.47;6.43;;;;;;;;;;5038840;28;20186;-94
2021/01/26 15:02:38;;;;;;;9.75;6.75;;;;;;;;;;5037334;28;20584;-92
2021/01/26 15:05:07;;;;;;;8.07;5.95;;;;;;;;;;5040680;28;20234;-92
2021/01/26 15:07:34;;;;;;;8.98;7.40;;;;;;;;;;5041724;28;20256;-93
2021/01/26 15:10:03;;;;;;;7.40;6.28;;;;;;;;;;5024085;28;20619;-93
2021/01/26 15:12:30;;;;;;;8.20;6.85;;;;;;;;;;5022889;28;20203;-93
2021/01/26 15:14:57;;;;;;;6.25;5.65;;;;;;;;;;5021869;28;20187;-93
2021/01/26 15:17:24;;;;;;;6.47;5.30;;;;;;;;;;5031121;28;20266;-92
2021/01/26 15:19:51;;;;;;;6.53;5.88;;;;;;;;;;5040915;28;20194;-92
2021/01/26 15:22:18;;;;;;;7.07;5.28;;;;;;;;;;5041020;28;20183;-93
2021/01/26 15:24:45;;;;;;;5.90;5.20;;;;;;;;;;5040296;28;20326;-93
2021/01/26 15:27:14;;;;;;;5.18;4.63;;;;;;;;;;5042169;28;20257;-93
2021/01/26 15:29:41;;;;;;;6.80;6.05;;;;;;;;;;5041529;28;20198;-91
2021/01/26 15:32:08;;;;;;;6.03;5.28;;;;;;;;;;5020375;28;20538;-91
2021/01/26 15:34:35;;;;;;;5.53;4.97;;;;;;;;;;5039287;28;20249;-89
2021/01/26 15:37:02;;;;;;;7.32;5.82;;;;;;;;;;5053467;28;20612;-91